sensor_id;sensor_type;location;lat;lon;timestamp;pressure;altitude;pressure_sealevel;temperature;humidity
72024;BME280;59889;50.700;5.440;2023-09-08T00:01:27;100150.66;;;30.39;27.97
72024;BME280;59889;50.700;5.440;2023-09-08T00:03:53;100148.11;;;30.44;27.93
72024;BME280;59889;50.700;5.440;2023-09-08T00:06:19;100148.74;;;30.38;28.00
72024;BME280;59889;50.700;5.440;2023-09-08T00:08:45;100147.13;;;30.40;27.96
72024;BME280;59889;50.700;5.440;2023-09-08T00:11:11;100144.90;;;30.47;27.92
72024;BME280;59889;50.700;5.440;2023-09-08T00:13:36;100147.46;;;30.34;28.01
72024;BME280;59889;50.700;5.440;2023-09-08T00:16:02;100145.00;;;30.40;27.98
72024;BME280;59889;50.700;5.440;2023-09-08T00:18:28;100149.08;;;30.41;27.97
72024;BME280;59889;50.700;5.440;2023-09-08T00:20:54;100150.28;;;30.16;27.99
72024;BME280;59889;50.700;5.440;2023-09-08T00:23:20;100150.02;;;30.10;28.06
72024;BME280;59889;50.700;5.440;2023-09-08T00:25:45;100151.10;;;30.25;28.15
72024;BME280;59889;50.700;5.440;2023-09-08T00:28:11;100147.35;;;30.43;27.99
72024;BME280;59889;50.700;5.440;2023-09-08T00:30:37;100145.46;;;30.42;27.99
72024;BME280;59889;50.700;5.440;2023-09-08T00:33:04;100145.25;;;30.35;28.09
72024;BME280;59889;50.700;5.440;2023-09-08T00:35:29;100145.41;;;30.51;28.14
72024;BME280;59889;50.700;5.440;2023-09-08T00:37:54;100146.06;;;30.06;28.38
72024;BME280;59889;50.700;5.440;2023-09-08T00:40:20;100146.09;;;30.66;28.01
72024;BME280;59889;50.700;5.440;2023-09-08T00:42:46;100146.73;;;30.51;28.17
72024;BME280;59889;50.700;5.440;2023-09-08T00:45:12;100145.82;;;30.03;28.39
72024;BME280;59889;50.700;5.440;2023-09-08T00:47:38;100146.11;;;30.39;28.06
72024;BME280;59889;50.700;5.440;2023-09-08T00:50:04;100145.52;;;30.20;28.23
72024;BME280;59889;50.700;5.440;2023-09-08T00:52:30;100147.19;;;30.57;28.12
72024;BME280;59889;50.700;5.440;2023-09-08T00:54:55;100149.07;;;30.29;28.15
72024;BME280;59889;50.700;5.440;2023-09-08T00:57:21;100144.88;;;30.38;28.08
72024;BME280;59889;50.700;5.440;2023-09-08T00:59:47;100145.41;;;30.14;28.08
72024;BME280;59889;50.700;5.440;2023-09-08T01:02:13;100148.15;;;30.29;28.18
72024;BME280;59889;50.700;5.440;2023-09-08T01:04:39;100146.40;;;30.05;28.44
72024;BME280;59889;50.700;5.440;2023-09-08T01:07:04;100148.08;;;30.32;28.16
72024;BME280;59889;50.700;5.440;2023-09-08T01:09:30;100146.35;;;29.95;28.31
72024;BME280;59889;50.700;5.440;2023-09-08T01:11:56;100145.94;;;29.98;28.52
72024;BME280;59889;50.700;5.440;2023-09-08T01:14:22;100145.64;;;30.16;28.34
72024;BME280;59889;50.700;5.440;2023-09-08T01:16:48;100144.33;;;30.29;28.24
72024;BME280;59889;50.700;5.440;2023-09-08T01:19:15;100147.09;;;30.57;28.18
72024;BME280;59889;50.700;5.440;2023-09-08T01:21:52;100148.59;;;30.13;28.38
72024;BME280;59889;50.700;5.440;2023-09-08T01:24:20;100147.00;;;30.17;28.31
72024;BME280;59889;50.700;5.440;2023-09-08T01:26:35;100147.73;;;30.10;28.43
72024;BME280;59889;50.700;5.440;2023-09-08T01:28:57;100144.37;;;30.19;28.34
72024;BME280;59889;50.700;5.440;2023-09-08T01:31:22;100144.49;;;30.32;28.20
72024;BME280;59889;50.700;5.440;2023-09-08T01:33:48;100143.98;;;30.25;28.26
72024;BME280;59889;50.700;5.440;2023-09-08T01:36:14;100142.00;;;30.38;28.37
72024;BME280;59889;50.700;5.440;2023-09-08T01:38:40;100142.40;;;30.15;28.39
72024;BME280;59889;50.700;5.440;2023-09-08T01:41:06;100142.51;;;30.34;28.18
72024;BME280;59889;50.700;5.440;2023-09-08T01:43:31;100144.07;;;30.26;28.27
72024;BME280;59889;50.700;5.440;2023-09-08T01:45:57;100142.97;;;30.17;28.39
72024;BME280;59889;50.700;5.440;2023-09-08T01:48:23;100141.76;;;30.25;28.30
72024;BME280;59889;50.700;5.440;2023-09-08T01:50:49;100142.16;;;30.50;28.28
72024;BME280;59889;50.700;5.440;2023-09-08T01:53:15;100137.56;;;30.55;28.23
72024;BME280;59889;50.700;5.440;2023-09-08T01:55:40;100137.51;;;30.11;28.44
72024;BME280;59889;50.700;5.440;2023-09-08T01:58:06;100135.80;;;30.31;28.49
72024;BME280;59889;50.700;5.440;2023-09-08T02:00:32;100133.73;;;29.94;28.38
72024;BME280;59889;50.700;5.440;2023-09-08T02:02:58;100133.20;;;29.89;28.69
72024;BME280;59889;50.700;5.440;2023-09-08T02:05:24;100132.49;;;30.38;28.44
72024;BME280;59889;50.700;5.440;2023-09-08T02:07:49;100127.71;;;30.20;28.41
72024;BME280;59889;50.700;5.440;2023-09-08T02:10:15;100123.49;;;29.95;28.64
72024;BME280;59889;50.700;5.440;2023-09-08T02:12:41;100122.19;;;30.10;28.75
72024;BME280;59889;50.700;5.440;2023-09-08T02:15:08;100120.30;;;29.97;28.61
72024;BME280;59889;50.700;5.440;2023-09-08T02:17:33;100123.22;;;30.13;28.45
72024;BME280;59889;50.700;5.440;2023-09-08T02:19:58;100120.86;;;30.20;28.40
72024;BME280;59889;50.700;5.440;2023-09-08T02:22:24;100122.84;;;30.09;28.51
72024;BME280;59889;50.700;5.440;2023-09-08T02:24:50;100116.40;;;30.19;28.39
72024;BME280;59889;50.700;5.440;2023-09-08T02:27:16;100119.87;;;29.99;28.61
72024;BME280;59889;50.700;5.440;2023-09-08T02:29:42;100121.59;;;30.05;28.56
72024;BME280;59889;50.700;5.440;2023-09-08T02:32:07;100123.70;;;29.95;28.68
72024;BME280;59889;50.700;5.440;2023-09-08T02:34:34;100123.98;;;30.11;28.50
72024;BME280;59889;50.700;5.440;2023-09-08T02:36:59;100125.56;;;29.95;28.67
72024;BME280;59889;50.700;5.440;2023-09-08T02:39:25;100121.64;;;30.10;28.53
72024;BME280;59889;50.700;5.440;2023-09-08T02:41:51;100122.33;;;29.53;28.61
72024;BME280;59889;50.700;5.440;2023-09-08T02:44:17;100121.27;;;30.18;28.44
72024;BME280;59889;50.700;5.440;2023-09-08T02:46:42;100123.51;;;30.02;28.59
72024;BME280;59889;50.700;5.440;2023-09-08T02:49:08;100124.82;;;29.99;28.65
72024;BME280;59889;50.700;5.440;2023-09-08T02:51:34;100126.28;;;29.93;28.70
72024;BME280;59889;50.700;5.440;2023-09-08T02:54:00;100122.16;;;30.13;28.48
72024;BME280;59889;50.700;5.440;2023-09-08T02:56:26;100121.30;;;30.00;28.64
72024;BME280;59889;50.700;5.440;2023-09-08T02:58:51;100119.70;;;29.96;28.67
72024;BME280;59889;50.700;5.440;2023-09-08T03:01:17;100123.02;;;29.93;28.71
72024;BME280;59889;50.700;5.440;2023-09-08T03:03:43;100123.84;;;29.86;28.76
72024;BME280;59889;50.700;5.440;2023-09-08T03:06:09;100124.37;;;30.09;28.53
72024;BME280;59889;50.700;5.440;2023-09-08T03:08:35;100125.86;;;30.24;28.62
72024;BME280;59889;50.700;5.440;2023-09-08T03:11:01;100128.16;;;29.95;28.71
72024;BME280;59889;50.700;5.440;2023-09-08T03:13:26;100127.31;;;30.57;28.53
72024;BME280;59889;50.700;5.440;2023-09-08T03:15:52;100123.67;;;30.02;28.65
72024;BME280;59889;50.700;5.440;2023-09-08T03:18:18;100121.84;;;29.95;28.68
72024;BME280;59889;50.700;5.440;2023-09-08T03:20:48;100116.59;;;29.97;28.68
72024;BME280;59889;50.700;5.440;2023-09-08T03:23:10;100114.19;;;29.68;28.98
72024;BME280;59889;50.700;5.440;2023-09-08T03:25:35;100113.49;;;29.92;28.74
72024;BME280;59889;50.700;5.440;2023-09-08T03:28:01;100111.46;;;29.93;28.75
72024;BME280;59889;50.700;5.440;2023-09-08T03:30:27;100111.08;;;29.74;28.94
72024;BME280;59889;50.700;5.440;2023-09-08T03:32:53;100109.38;;;29.69;28.97
72024;BME280;59889;50.700;5.440;2023-09-08T03:35:19;100109.23;;;29.80;28.83
72024;BME280;59889;50.700;5.440;2023-09-08T03:37:45;100107.55;;;30.08;28.85
72024;BME280;59889;50.700;5.440;2023-09-08T03:40:11;100106.52;;;29.79;28.88
72024;BME280;59889;50.700;5.440;2023-09-08T03:42:36;100104.88;;;30.16;28.74
72024;BME280;59889;50.700;5.440;2023-09-08T03:45:03;100101.19;;;30.28;28.61
72024;BME280;59889;50.700;5.440;2023-09-08T03:47:28;100100.21;;;29.89;28.78
72024;BME280;59889;50.700;5.440;2023-09-08T03:49:54;100101.80;;;30.11;28.80
72024;BME280;59889;50.700;5.440;2023-09-08T03:52:20;100103.58;;;29.77;28.92
72024;BME280;59889;50.700;5.440;2023-09-08T03:54:45;100104.16;;;29.80;28.91
72024;BME280;59889;50.700;5.440;2023-09-08T03:57:11;100103.44;;;29.86;28.84
72024;BME280;59889;50.700;5.440;2023-09-08T03:59:37;100099.83;;;30.13;28.56
72024;BME280;59889;50.700;5.440;2023-09-08T04:02:03;100098.48;;;30.06;28.66
72024;BME280;59889;50.700;5.440;2023-09-08T04:04:29;100100.93;;;30.30;28.90
72024;BME280;59889;50.700;5.440;2023-09-08T04:06:54;100101.30;;;29.53;29.18
72024;BME280;59889;50.700;5.440;2023-09-08T04:09:20;100097.28;;;29.73;29.33
72024;BME280;59889;50.700;5.440;2023-09-08T04:11:46;100095.90;;;29.58;29.47
72024;BME280;59889;50.700;5.440;2023-09-08T04:14:12;100095.78;;;29.39;29.73
72024;BME280;59889;50.700;5.440;2023-09-08T04:16:38;100096.72;;;29.09;29.55
72024;BME280;59889;50.700;5.440;2023-09-08T04:19:03;100099.28;;;29.52;29.59
72024;BME280;59889;50.700;5.440;2023-09-08T04:21:29;100100.75;;;29.48;29.66
72024;BME280;59889;50.700;5.440;2023-09-08T04:23:55;100101.58;;;29.21;29.65
72024;BME280;59889;50.700;5.440;2023-09-08T04:26:21;100103.16;;;29.41;29.66
72024;BME280;59889;50.700;5.440;2023-09-08T04:28:47;100102.23;;;29.20;29.62
72024;BME280;59889;50.700;5.440;2023-09-08T04:31:13;100101.48;;;29.14;29.72
72024;BME280;59889;50.700;5.440;2023-09-08T04:33:38;100098.69;;;29.37;29.65
72024;BME280;59889;50.700;5.440;2023-09-08T04:36:03;100097.58;;;29.41;29.60
72024;BME280;59889;50.700;5.440;2023-09-08T04:38:29;100100.91;;;29.55;29.68
72024;BME280;59889;50.700;5.440;2023-09-08T04:40:55;100103.06;;;29.29;29.65
72024;BME280;59889;50.700;5.440;2023-09-08T04:43:20;100107.55;;;29.00;29.77
72024;BME280;59889;50.700;5.440;2023-09-08T04:45:46;100105.50;;;29.19;29.63
72024;BME280;59889;50.700;5.440;2023-09-08T04:48:11;100104.81;;;29.33;29.70
72024;BME280;59889;50.700;5.440;2023-09-08T04:50:37;100105.48;;;29.42;29.59
72024;BME280;59889;50.700;5.440;2023-09-08T04:53:03;100110.21;;;29.38;29.62
72024;BME280;59889;50.700;5.440;2023-09-08T04:55:29;100112.77;;;29.38;29.59
72024;BME280;59889;50.700;5.440;2023-09-08T04:57:54;100113.17;;;29.27;29.66
72024;BME280;59889;50.700;5.440;2023-09-08T05:00:20;100113.82;;;29.35;29.57
72024;BME280;59889;50.700;5.440;2023-09-08T05:02:46;100117.92;;;29.33;29.58
72024;BME280;59889;50.700;5.440;2023-09-08T05:05:12;100119.69;;;29.32;29.58
72024;BME280;59889;50.700;5.440;2023-09-08T05:07:38;100123.17;;;29.30;29.57
72024;BME280;59889;50.700;5.440;2023-09-08T05:10:04;100121.72;;;29.29;29.57
72024;BME280;59889;50.700;5.440;2023-09-08T05:12:29;100124.00;;;29.34;29.51
72024;BME280;59889;50.700;5.440;2023-09-08T05:14:55;100122.78;;;28.83;29.54
72024;BME280;59889;50.700;5.440;2023-09-08T05:17:21;100125.20;;;29.41;29.46
72024;BME280;59889;50.700;5.440;2023-09-08T05:19:47;100125.64;;;29.40;29.45
72024;BME280;59889;50.700;5.440;2023-09-08T05:22:12;100128.02;;;29.35;29.53
72024;BME280;59889;50.700;5.440;2023-09-08T05:24:38;100124.60;;;29.04;29.57
72024;BME280;59889;50.700;5.440;2023-09-08T05:27:04;100129.39;;;29.35;29.50
72024;BME280;59889;50.700;5.440;2023-09-08T05:29:30;100128.64;;;29.28;29.57
72024;BME280;59889;50.700;5.440;2023-09-08T05:31:56;100128.10;;;29.33;29.51
72024;BME280;59889;50.700;5.440;2023-09-08T05:34:21;100127.83;;;29.35;29.51
72024;BME280;59889;50.700;5.440;2023-09-08T05:36:47;100127.87;;;29.33;29.58
72024;BME280;59889;50.700;5.440;2023-09-08T05:39:14;100128.92;;;29.44;29.48
72024;BME280;59889;50.700;5.440;2023-09-08T05:41:39;100126.44;;;29.31;29.67
72024;BME280;59889;50.700;5.440;2023-09-08T05:44:05;100124.86;;;29.08;29.62
72024;BME280;59889;50.700;5.440;2023-09-08T05:46:31;100129.61;;;29.22;29.64
72024;BME280;59889;50.700;5.440;2023-09-08T05:48:56;100127.13;;;29.19;29.64
72024;BME280;59889;50.700;5.440;2023-09-08T05:51:22;100124.99;;;29.30;29.47
72024;BME280;59889;50.700;5.440;2023-09-08T05:53:48;100127.10;;;29.22;29.51
72024;BME280;59889;50.700;5.440;2023-09-08T05:56:14;100127.38;;;29.17;29.60
72024;BME280;59889;50.700;5.440;2023-09-08T05:58:39;100127.82;;;29.15;29.54
72024;BME280;59889;50.700;5.440;2023-09-08T06:01:06;100129.61;;;29.13;29.51
72024;BME280;59889;50.700;5.440;2023-09-08T06:03:31;100131.69;;;29.18;29.40
72024;BME280;59889;50.700;5.440;2023-09-08T06:05:57;100132.95;;;29.11;29.49
72024;BME280;59889;50.700;5.440;2023-09-08T06:08:22;100135.07;;;29.18;29.42
72024;BME280;59889;50.700;5.440;2023-09-08T06:10:48;100135.22;;;29.31;29.53
72024;BME280;59889;50.700;5.440;2023-09-08T06:13:14;100136.58;;;29.28;29.53
72024;BME280;59889;50.700;5.440;2023-09-08T06:15:40;100133.69;;;28.86;29.67
72024;BME280;59889;50.700;5.440;2023-09-08T06:18:06;100135.35;;;29.03;29.51
72024;BME280;59889;50.700;5.440;2023-09-08T06:20:32;100134.73;;;28.93;29.67
72024;BME280;59889;50.700;5.440;2023-09-08T06:22:57;100137.73;;;29.03;29.58
72024;BME280;59889;50.700;5.440;2023-09-08T06:25:23;100140.12;;;29.28;29.58
72024;BME280;59889;50.700;5.440;2023-09-08T06:27:49;100143.62;;;29.04;29.65
72024;BME280;59889;50.700;5.440;2023-09-08T06:30:15;100147.97;;;29.05;29.61
72024;BME280;59889;50.700;5.440;2023-09-08T06:32:40;100151.84;;;29.26;29.65
72024;BME280;59889;50.700;5.440;2023-09-08T06:35:07;100156.25;;;29.07;29.61
72024;BME280;59889;50.700;5.440;2023-09-08T06:37:35;100157.73;;;29.05;29.64
72024;BME280;59889;50.700;5.440;2023-09-08T06:39:58;100158.40;;;29.05;29.66
72024;BME280;59889;50.700;5.440;2023-09-08T06:42:24;100160.91;;;29.01;29.72
72024;BME280;59889;50.700;5.440;2023-09-08T06:44:50;100161.48;;;28.98;29.75
72024;BME280;59889;50.700;5.440;2023-09-08T06:47:16;100162.22;;;29.05;29.63
72024;BME280;59889;50.700;5.440;2023-09-08T06:49:41;100161.20;;;29.08;29.52
72024;BME280;59889;50.700;5.440;2023-09-08T06:52:07;100162.49;;;29.24;29.38
72024;BME280;59889;50.700;5.440;2023-09-08T06:54:33;100163.92;;;29.25;29.38
72024;BME280;59889;50.700;5.440;2023-09-08T06:56:59;100169.11;;;29.48;29.19
72024;BME280;59889;50.700;5.440;2023-09-08T06:59:24;100171.60;;;29.54;29.17
72024;BME280;59889;50.700;5.440;2023-09-08T07:01:50;100165.89;;;29.59;28.86
72024;BME280;59889;50.700;5.440;2023-09-08T07:04:16;100168.34;;;29.68;28.76
72024;BME280;59889;50.700;5.440;2023-09-08T07:06:41;100169.45;;;29.90;28.53
72024;BME280;59889;50.700;5.440;2023-09-08T07:09:07;100167.77;;;30.17;27.98
72024;BME280;59889;50.700;5.440;2023-09-08T07:11:32;100166.91;;;31.10;26.84
72024;BME280;59889;50.700;5.440;2023-09-08T07:13:58;100170.38;;;32.27;25.51
72024;BME280;59889;50.700;5.440;2023-09-08T07:16:24;100175.04;;;32.77;24.60
72024;BME280;59889;50.700;5.440;2023-09-08T07:18:50;100178.21;;;33.74;23.75
72024;BME280;59889;50.700;5.440;2023-09-08T07:21:15;100177.72;;;33.80;23.24
72024;BME280;59889;50.700;5.440;2023-09-08T07:23:41;100178.78;;;34.49;22.62
72024;BME280;59889;50.700;5.440;2023-09-08T07:26:06;100179.84;;;34.41;22.33
72024;BME280;59889;50.700;5.440;2023-09-08T07:28:32;100180.91;;;34.70;22.03
72024;BME280;59889;50.700;5.440;2023-09-08T07:31:01;100178.20;;;34.52;21.96
72024;BME280;59889;50.700;5.440;2023-09-08T07:33:23;100179.81;;;34.68;21.86
72024;BME280;59889;50.700;5.440;2023-09-08T07:35:49;100177.93;;;34.72;21.86
72024;BME280;59889;50.700;5.440;2023-09-08T07:38:14;100176.40;;;34.11;22.40
72024;BME280;59889;50.700;5.440;2023-09-08T07:40:41;100178.43;;;33.52;23.43
72024;BME280;59889;50.700;5.440;2023-09-08T07:43:06;100178.73;;;32.89;24.24
72024;BME280;59889;50.700;5.440;2023-09-08T07:45:32;100177.82;;;32.39;25.05
72024;BME280;59889;50.700;5.440;2023-09-08T07:47:57;100173.57;;;31.87;25.74
72024;BME280;59889;50.700;5.440;2023-09-08T07:50:26;100168.10;;;31.52;26.56
72024;BME280;59889;50.700;5.440;2023-09-08T07:52:50;100167.98;;;31.25;26.84
72024;BME280;59889;50.700;5.440;2023-09-08T07:55:14;100173.59;;;31.00;27.15
72024;BME280;59889;50.700;5.440;2023-09-08T07:57:41;100170.94;;;31.11;27.53
72024;BME280;59889;50.700;5.440;2023-09-08T08:00:07;100169.78;;;30.17;27.97
72024;BME280;59889;50.700;5.440;2023-09-08T08:02:31;100171.53;;;30.68;27.98
72024;BME280;59889;50.700;5.440;2023-09-08T08:04:57;100173.38;;;30.33;28.15
72024;BME280;59889;50.700;5.440;2023-09-08T08:07:22;100176.68;;;30.10;28.41
72024;BME280;59889;50.700;5.440;2023-09-08T08:09:48;100177.42;;;30.37;28.44
72024;BME280;59889;50.700;5.440;2023-09-08T08:12:14;100177.51;;;30.04;28.84
72024;BME280;59889;50.700;5.440;2023-09-08T08:14:40;100175.54;;;30.11;28.79
72024;BME280;59889;50.700;5.440;2023-09-08T08:17:06;100174.72;;;29.72;28.98
72024;BME280;59889;50.700;5.440;2023-09-08T08:19:31;100174.75;;;29.81;29.06
72024;BME280;59889;50.700;5.440;2023-09-08T08:21:57;100174.09;;;29.72;29.20
72024;BME280;59889;50.700;5.440;2023-09-08T08:24:23;100177.40;;;29.70;29.23
72024;BME280;59889;50.700;5.440;2023-09-08T08:26:49;100177.29;;;29.67;29.31
72024;BME280;59889;50.700;5.440;2023-09-08T08:29:14;100177.17;;;29.50;29.22
72024;BME280;59889;50.700;5.440;2023-09-08T08:31:40;100179.37;;;29.72;29.28
72024;BME280;59889;50.700;5.440;2023-09-08T08:34:06;100177.91;;;29.71;29.29
72024;BME280;59889;50.700;5.440;2023-09-08T08:36:31;100180.86;;;29.82;29.45
72024;BME280;59889;50.700;5.440;2023-09-08T08:38:57;100180.30;;;29.73;29.31
72024;BME280;59889;50.700;5.440;2023-09-08T08:41:23;100180.87;;;29.91;29.37
72024;BME280;59889;50.700;5.440;2023-09-08T08:43:48;100184.43;;;29.83;29.45
72024;BME280;59889;50.700;5.440;2023-09-08T08:46:14;100187.03;;;29.50;29.63
72024;BME280;59889;50.700;5.440;2023-09-08T08:48:40;100187.55;;;29.65;29.73
72024;BME280;59889;50.700;5.440;2023-09-08T08:51:05;100188.94;;;29.77;29.63
72024;BME280;59889;50.700;5.440;2023-09-08T08:53:31;100190.23;;;29.48;29.71
72024;BME280;59889;50.700;5.440;2023-09-08T08:55:58;100189.62;;;29.45;29.75
72024;BME280;59889;50.700;5.440;2023-09-08T08:58:22;100187.16;;;29.68;29.81
72024;BME280;59889;50.700;5.440;2023-09-08T09:00:47;100186.81;;;29.41;30.08
72024;BME280;59889;50.700;5.440;2023-09-08T09:03:13;100188.36;;;29.66;29.85
72024;BME280;59889;50.700;5.440;2023-09-08T09:05:39;100188.07;;;29.95;29.79
72024;BME280;59889;50.700;5.440;2023-09-08T09:08:05;100188.45;;;29.73;29.83
72024;BME280;59889;50.700;5.440;2023-09-08T09:10:30;100182.81;;;29.58;29.75
72024;BME280;59889;50.700;5.440;2023-09-08T09:12:56;100179.60;;;29.60;29.74
72024;BME280;59889;50.700;5.440;2023-09-08T09:15:28;100180.41;;;30.20;29.66
72024;BME280;59889;50.700;5.440;2023-09-08T09:20:14;100182.92;;;29.97;29.74
72024;BME280;59889;50.700;5.440;2023-09-08T09:22:39;100187.01;;;29.78;29.97
72024;BME280;59889;50.700;5.440;2023-09-08T09:25:05;100184.71;;;29.73;29.83
72024;BME280;59889;50.700;5.440;2023-09-08T09:27:30;100186.71;;;30.09;29.69
72024;BME280;59889;50.700;5.440;2023-09-08T09:29:58;100186.70;;;29.83;29.76
72024;BME280;59889;50.700;5.440;2023-09-08T09:32:23;100186.68;;;29.61;30.02
72024;BME280;59889;50.700;5.440;2023-09-08T09:34:49;100185.42;;;29.79;29.85
72024;BME280;59889;50.700;5.440;2023-09-08T09:37:14;100185.40;;;30.17;29.92
72024;BME280;59889;50.700;5.440;2023-09-08T09:39:39;100184.59;;;30.10;29.95
72024;BME280;59889;50.700;5.440;2023-09-08T09:42:06;100183.50;;;30.11;29.99
72024;BME280;59889;50.700;5.440;2023-09-08T09:44:31;100183.40;;;29.82;30.02
72024;BME280;59889;50.700;5.440;2023-09-08T09:46:57;100184.89;;;29.91;29.89
72024;BME280;59889;50.700;5.440;2023-09-08T09:49:23;100185.01;;;29.85;29.99
72024;BME280;59889;50.700;5.440;2023-09-08T09:51:50;100186.46;;;29.84;29.98
72024;BME280;59889;50.700;5.440;2023-09-08T09:54:15;100186.17;;;29.96;29.92
72024;BME280;59889;50.700;5.440;2023-09-08T09:56:40;100183.27;;;29.83;30.05
72024;BME280;59889;50.700;5.440;2023-09-08T09:59:08;100183.13;;;29.92;29.97
72024;BME280;59889;50.700;5.440;2023-09-08T10:01:32;100182.27;;;30.14;29.99
72024;BME280;59889;50.700;5.440;2023-09-08T10:03:57;100181.56;;;29.94;29.79
72024;BME280;59889;50.700;5.440;2023-09-08T10:06:23;100180.69;;;29.84;30.11
72024;BME280;59889;50.700;5.440;2023-09-08T10:08:51;100180.78;;;29.87;30.15
72024;BME280;59889;50.700;5.440;2023-09-08T10:11:16;100180.11;;;30.46;30.04
72024;BME280;59889;50.700;5.440;2023-09-08T10:13:43;100179.44;;;30.04;30.14
72024;BME280;59889;50.700;5.440;2023-09-08T10:16:08;100178.70;;;30.04;30.54
72024;BME280;59889;50.700;5.440;2023-09-08T10:18:33;100176.68;;;30.06;30.26
72024;BME280;59889;50.700;5.440;2023-09-08T10:21:00;100176.18;;;30.08;30.38
72024;BME280;59889;50.700;5.440;2023-09-08T10:23:26;100175.94;;;30.31;30.41
72024;BME280;59889;50.700;5.440;2023-09-08T10:25:50;100176.72;;;29.99;30.53
72024;BME280;59889;50.700;5.440;2023-09-08T10:28:14;100173.76;;;30.01;30.59
72024;BME280;59889;50.700;5.440;2023-09-08T10:30:40;100174.85;;;30.03;30.49
72024;BME280;59889;50.700;5.440;2023-09-08T10:33:06;100174.88;;;29.95;30.56
72024;BME280;59889;50.700;5.440;2023-09-08T10:35:31;100173.52;;;30.17;30.62
72024;BME280;59889;50.700;5.440;2023-09-08T10:40:23;100174.68;;;30.32;30.43
72024;BME280;59889;50.700;5.440;2023-09-08T10:42:48;100177.75;;;30.08;30.45
72024;BME280;59889;50.700;5.440;2023-09-08T10:45:17;100179.61;;;30.09;30.47
72024;BME280;59889;50.700;5.440;2023-09-08T10:50:05;100176.91;;;30.35;30.55
72024;BME280;59889;50.700;5.440;2023-09-08T10:52:30;100175.19;;;29.99;30.64
72024;BME280;59889;50.700;5.440;2023-09-08T10:54:56;100173.54;;;30.08;30.60
72024;BME280;59889;50.700;5.440;2023-09-08T10:57:24;100174.04;;;30.17;30.49
72024;BME280;59889;50.700;5.440;2023-09-08T10:59:52;100175.09;;;30.13;30.59
72024;BME280;59889;50.700;5.440;2023-09-08T11:04:41;100171.20;;;30.16;30.59
72024;BME280;59889;50.700;5.440;2023-09-08T11:07:05;100170.85;;;30.33;30.42
72024;BME280;59889;50.700;5.440;2023-09-08T11:09:35;100170.98;;;30.17;30.79
72024;BME280;59889;50.700;5.440;2023-09-08T11:11:56;100169.42;;;30.25;30.60
72024;BME280;59889;50.700;5.440;2023-09-08T11:14:22;100168.82;;;30.16;30.71
72024;BME280;59889;50.700;5.440;2023-09-08T11:16:48;100168.81;;;30.25;30.59
72024;BME280;59889;50.700;5.440;2023-09-08T11:19:14;100168.75;;;30.13;30.77
72024;BME280;59889;50.700;5.440;2023-09-08T11:21:39;100169.05;;;30.48;30.75
72024;BME280;59889;50.700;5.440;2023-09-08T11:24:06;100171.22;;;29.91;30.84
72024;BME280;59889;50.700;5.440;2023-09-08T11:26:32;100169.94;;;30.19;30.84
72024;BME280;59889;50.700;5.440;2023-09-08T11:28:56;100171.14;;;30.22;30.80
72024;BME280;59889;50.700;5.440;2023-09-08T11:31:21;100172.26;;;29.92;30.87
72024;BME280;59889;50.700;5.440;2023-09-08T11:33:48;100170.26;;;30.30;30.71
72024;BME280;59889;50.700;5.440;2023-09-08T11:36:14;100169.57;;;30.24;30.82
72024;BME280;59889;50.700;5.440;2023-09-08T11:38:39;100166.20;;;30.23;30.80
72024;BME280;59889;50.700;5.440;2023-09-08T11:41:05;100165.79;;;30.34;30.73
72024;BME280;59889;50.700;5.440;2023-09-08T11:43:30;100161.00;;;30.19;30.89
72024;BME280;59889;50.700;5.440;2023-09-08T11:45:56;100165.76;;;30.11;31.01
72024;BME280;59889;50.700;5.440;2023-09-08T11:48:24;100166.28;;;30.11;30.99
72024;BME280;59889;50.700;5.440;2023-09-08T11:50:48;100163.20;;;30.34;30.99
72024;BME280;59889;50.700;5.440;2023-09-08T11:53:18;100163.57;;;30.09;31.03
72024;BME280;59889;50.700;5.440;2023-09-08T11:55:39;100165.10;;;30.06;31.05
72024;BME280;59889;50.700;5.440;2023-09-08T11:58:05;100162.59;;;30.26;30.84
72024;BME280;59889;50.700;5.440;2023-09-08T12:00:30;100162.81;;;30.13;30.98
72024;BME280;59889;50.700;5.440;2023-09-08T12:02:55;100161.23;;;30.10;31.01
72024;BME280;59889;50.700;5.440;2023-09-08T12:05:21;100162.87;;;30.15;30.96
72024;BME280;59889;50.700;5.440;2023-09-08T12:07:46;100160.41;;;30.20;30.91
72024;BME280;59889;50.700;5.440;2023-09-08T12:10:12;100161.75;;;29.81;31.07
72024;BME280;59889;50.700;5.440;2023-09-08T12:12:43;100158.71;;;30.02;31.10
72024;BME280;59889;50.700;5.440;2023-09-08T12:15:04;100155.73;;;30.07;31.08
72024;BME280;59889;50.700;5.440;2023-09-08T12:17:29;100155.19;;;30.05;31.09
72024;BME280;59889;50.700;5.440;2023-09-08T12:19:55;100154.17;;;30.00;31.13
72024;BME280;59889;50.700;5.440;2023-09-08T12:22:20;100153.03;;;29.76;31.13
72024;BME280;59889;50.700;5.440;2023-09-08T12:24:47;100155.36;;;30.21;31.17
72024;BME280;59889;50.700;5.440;2023-09-08T12:27:11;100154.89;;;30.04;31.08
72024;BME280;59889;50.700;5.440;2023-09-08T12:29:37;100154.89;;;30.05;31.10
72024;BME280;59889;50.700;5.440;2023-09-08T12:32:03;100154.35;;;29.97;31.16
72024;BME280;59889;50.700;5.440;2023-09-08T12:34:29;100153.67;;;30.17;30.94
72024;BME280;59889;50.700;5.440;2023-09-08T12:36:55;100154.19;;;30.12;31.02
72024;BME280;59889;50.700;5.440;2023-09-08T12:39:20;100152.30;;;30.23;31.15
72024;BME280;59889;50.700;5.440;2023-09-08T12:41:46;100151.23;;;29.75;31.17
72024;BME280;59889;50.700;5.440;2023-09-08T12:44:12;100154.01;;;30.18;30.94
72024;BME280;59889;50.700;5.440;2023-09-08T12:46:37;100149.65;;;30.13;30.97
72024;BME280;59889;50.700;5.440;2023-09-08T12:49:03;100151.46;;;30.12;31.01
72024;BME280;59889;50.700;5.440;2023-09-08T12:51:29;100149.75;;;30.21;30.91